createdAt,value
2022-10-11T00:00:21.614Z,-6.36
2022-10-11T00:01:21.740Z,-6.36
2022-10-11T00:02:21.617Z,-6.35
2022-10-11T00:03:21.691Z,-6.35
2022-10-11T00:04:21.615Z,-6.35
2022-10-11T00:05:21.695Z,-6.43
2022-10-11T00:06:21.631Z,-6.46
2022-10-11T00:07:21.644Z,-6.44
2022-10-11T00:08:21.646Z,-6.46
2022-10-11T00:09:21.666Z,-6.44
2022-10-11T00:10:21.595Z,-6.46
2022-10-11T00:11:21.606Z,-6.45
2022-10-11T00:12:21.553Z,-6.45
2022-10-11T00:13:21.563Z,-6.45
2022-10-11T00:14:21.565Z,-6.26
2022-10-11T00:15:21.573Z,-6.21
2022-10-11T00:16:21.548Z,-6.21
2022-10-11T00:17:21.547Z,-6.20
2022-10-11T00:18:21.475Z,-6.19
2022-10-11T00:19:21.493Z,-6.20
2022-10-11T00:20:21.497Z,-6.18
2022-10-11T00:21:21.483Z,-6.22
2022-10-11T00:22:21.455Z,-6.23
2022-10-11T00:23:21.466Z,-6.21
2022-10-11T00:24:21.448Z,-6.26
2022-10-11T00:25:21.455Z,-6.30
2022-10-11T00:26:21.419Z,-6.35
2022-10-11T00:27:21.458Z,-6.39
2022-10-11T00:28:21.484Z,-6.49
2022-10-11T00:29:21.419Z,-6.61
2022-10-11T00:30:21.396Z,-6.71
2022-10-11T00:31:29.900Z,-6.76
2022-10-11T00:32:33.301Z,-6.79
2022-10-11T00:33:38.683Z,-6.77
2022-10-11T00:34:33.386Z,-6.79
2022-10-11T00:35:33.376Z,-6.78
2022-10-11T00:36:33.337Z,-6.80
2022-10-11T00:37:33.379Z,-6.81
2022-10-11T00:38:33.322Z,-6.85
2022-10-11T00:39:33.332Z,-6.85
2022-10-11T00:40:33.345Z,-6.87
2022-10-11T00:41:37.226Z,-6.86
2022-10-11T00:42:37.300Z,-6.83
2022-10-11T00:43:37.287Z,-6.82
2022-10-11T00:44:37.309Z,-6.82
2022-10-11T00:45:37.326Z,-6.82
2022-10-11T00:46:37.308Z,-6.81
2022-10-11T00:47:37.294Z,-6.80
2022-10-11T00:48:43.183Z,-6.80
2022-10-11T00:49:43.288Z,-6.74
2022-10-11T00:50:43.288Z,-6.58
2022-10-11T00:51:43.289Z,-6.55
2022-10-11T00:52:43.277Z,-6.52
2022-10-11T00:53:43.287Z,-6.43
2022-10-11T00:54:43.268Z,-6.45
2022-10-11T00:55:43.268Z,-6.42
2022-10-11T00:56:43.320Z,-6.37
2022-10-11T00:57:43.308Z,-6.38
2022-10-11T00:58:43.261Z,-6.37
2022-10-11T00:59:43.270Z,-6.37
2022-10-11T01:00:43.241Z,-6.35
2022-10-11T01:01:43.371Z,-6.34
2022-10-11T01:02:43.240Z,-6.34
2022-10-11T01:03:43.258Z,-6.35
2022-10-11T01:04:43.203Z,-6.38
2022-10-11T01:05:43.218Z,-6.34
2022-10-11T01:06:43.193Z,-6.33
2022-10-11T01:07:43.226Z,-6.32
2022-10-11T01:08:43.206Z,-6.29
2022-10-11T01:09:43.174Z,-6.29
2022-10-11T01:10:43.162Z,-6.29
2022-10-11T01:11:43.176Z,-6.28
2022-10-11T01:12:43.152Z,-6.28
2022-10-11T01:13:43.204Z,-6.30
2022-10-11T01:14:43.121Z,-6.29
2022-10-11T01:15:43.131Z,-6.28
2022-10-11T01:16:43.102Z,-6.31
2022-10-11T01:17:43.118Z,-6.31
2022-10-11T01:18:43.090Z,-6.32
2022-10-11T01:19:43.130Z,-6.33
2022-10-11T01:20:43.119Z,-6.35
2022-10-11T01:21:43.105Z,-6.41
2022-10-11T01:22:43.074Z,-6.41
2022-10-11T01:23:43.083Z,-6.42
2022-10-11T01:24:43.056Z,-6.43
2022-10-11T01:25:43.079Z,-6.41
2022-10-11T01:26:43.081Z,-6.43
2022-10-11T01:27:43.101Z,-6.44
2022-10-11T01:28:43.141Z,-6.43
2022-10-11T01:29:43.034Z,-6.41
2022-10-11T01:30:43.036Z,-6.38
2022-10-11T01:31:43.008Z,-6.37
2022-10-11T01:32:43.027Z,-6.36
2022-10-11T01:33:43.013Z,-6.38
2022-10-11T01:34:42.979Z,-6.39
2022-10-11T01:35:42.982Z,-6.44
2022-10-11T01:36:42.966Z,-6.47
2022-10-11T01:37:43.415Z,-6.51
2022-10-11T01:38:47.882Z,-6.55
2022-10-11T01:39:47.945Z,-6.57
2022-10-11T01:40:47.984Z,-6.60
2022-10-11T01:41:47.958Z,-6.60
2022-10-11T01:42:47.960Z,-6.61
2022-10-11T01:43:52.889Z,-6.61
2022-10-11T01:44:52.942Z,-6.52
2022-10-11T01:45:52.921Z,-6.55
2022-10-11T01:46:58.844Z,-6.52
2022-10-11T01:48:04.825Z,-6.45
2022-10-11T01:49:04.924Z,-6.46
2022-10-11T01:50:04.917Z,-6.41
2022-10-11T01:51:04.976Z,-6.38
2022-10-11T01:52:04.901Z,-6.36
2022-10-11T01:53:10.842Z,-6.38
2022-10-11T01:54:10.913Z,-6.39
2022-10-11T01:55:10.872Z,-6.39
2022-10-11T01:56:10.900Z,-6.39
2022-10-11T01:57:10.893Z,-6.39
2022-10-11T01:58:10.930Z,-6.39
2022-10-11T01:59:10.875Z,-6.36
2022-10-11T02:00:10.929Z,-6.35
2022-10-11T02:01:10.989Z,-6.37
2022-10-11T02:02:10.869Z,-6.37
2022-10-11T02:03:10.846Z,-6.37
2022-10-11T02:04:10.877Z,-6.34
2022-10-11T02:05:10.853Z,-6.36
2022-10-11T02:06:10.864Z,-6.36
2022-10-11T02:07:10.828Z,-6.36
2022-10-11T02:08:10.876Z,-6.35
2022-10-11T02:09:10.804Z,-6.36
2022-10-11T02:10:10.799Z,-6.38
2022-10-11T02:11:10.754Z,-6.37
2022-10-11T02:12:10.827Z,-6.38
2022-10-11T02:13:10.785Z,-6.35
2022-10-11T02:14:10.788Z,-6.35
2022-10-11T02:15:10.760Z,-6.33
2022-10-11T02:16:10.762Z,-6.32
2022-10-11T02:17:10.743Z,-6.36
2022-10-11T02:18:10.756Z,-6.37
2022-10-11T02:19:10.731Z,-6.39
2022-10-11T02:20:10.799Z,-6.38
2022-10-11T02:21:10.722Z,-6.38
2022-10-11T02:22:10.763Z,-6.38
2022-10-11T02:23:10.758Z,-6.42
2022-10-11T02:24:10.718Z,-6.41
2022-10-11T02:25:10.705Z,-6.45
2022-10-11T02:26:10.747Z,-6.47
2022-10-11T02:27:10.700Z,-6.55
2022-10-11T02:28:10.730Z,-6.58
2022-10-11T02:29:10.694Z,-6.61
2022-10-11T02:30:10.672Z,-6.63
2022-10-11T02:31:10.659Z,-6.66
2022-10-11T02:32:10.723Z,-6.65
2022-10-11T02:33:10.640Z,-6.67
2022-10-11T02:34:10.702Z,-6.70
2022-10-11T02:35:10.622Z,-6.63
2022-10-11T02:36:10.604Z,-6.60
2022-10-11T02:37:10.562Z,-6.56
2022-10-11T02:38:10.608Z,-6.52
2022-10-11T02:41:04.453Z,-6.52
2022-10-11T02:42:04.532Z,-6.46
2022-10-11T02:43:04.490Z,-6.46
2022-10-11T02:44:04.527Z,-6.48
2022-10-11T02:45:04.501Z,-6.47
2022-10-11T02:46:04.904Z,-6.48
2022-10-11T02:47:04.449Z,-6.47
2022-10-11T02:48:04.458Z,-6.49
2022-10-11T02:49:04.444Z,-6.51
2022-10-11T02:50:04.460Z,-6.57
2022-10-11T02:51:04.415Z,-6.58
2022-10-11T02:52:04.439Z,-6.57
2022-10-11T02:53:04.413Z,-6.60
2022-10-11T02:54:04.425Z,-6.64
2022-10-11T02:55:04.402Z,-6.63
2022-10-11T02:56:04.870Z,-6.65
2022-10-11T02:57:04.414Z,-6.67
2022-10-11T02:58:04.436Z,-6.71
2022-10-11T02:59:04.370Z,-6.73
2022-10-11T03:00:04.380Z,-6.72
2022-10-11T03:01:04.358Z,-6.66
2022-10-11T03:02:04.444Z,-6.61
2022-10-11T03:03:04.379Z,-6.60
2022-10-11T03:04:04.369Z,-6.56
2022-10-11T03:05:04.373Z,-6.53
2022-10-11T03:06:04.690Z,-6.50
2022-10-11T03:07:04.354Z,-6.47
2022-10-11T03:08:04.352Z,-6.47
2022-10-11T03:09:04.319Z,-6.47
2022-10-11T03:10:04.344Z,-6.44
2022-10-11T03:11:04.347Z,-6.45
2022-10-11T03:12:04.335Z,-6.45
2022-10-11T03:13:04.291Z,-6.39
2022-10-11T03:14:04.311Z,-6.38
2022-10-11T03:15:04.302Z,-6.36
2022-10-11T03:16:04.265Z,-6.31
2022-10-11T03:17:30.896Z,-6.32
2022-10-11T03:18:04.317Z,-6.29
2022-10-11T03:19:04.273Z,-6.29
2022-10-11T03:20:04.340Z,-6.27
2022-10-11T03:21:04.264Z,-6.27
2022-10-11T03:22:04.301Z,-6.29
2022-10-11T03:23:04.243Z,-6.29
2022-10-11T03:24:04.275Z,-6.27
2022-10-11T03:25:04.769Z,-6.30
2022-10-11T03:26:04.756Z,-6.27
2022-10-11T03:27:04.224Z,-6.28
2022-10-11T03:28:04.257Z,-6.23
2022-10-11T03:29:04.270Z,-6.21
2022-10-11T03:30:04.715Z,-6.21
2022-10-11T03:31:04.248Z,-6.17
2022-10-11T03:32:04.246Z,-6.16
2022-10-11T03:33:04.241Z,-6.18
2022-10-11T03:34:04.252Z,-6.18
2022-10-11T03:35:04.267Z,-6.21
2022-10-11T03:36:04.694Z,-6.18
2022-10-11T03:37:04.234Z,-6.16
2022-10-11T03:38:04.249Z,-6.18
2022-10-11T03:39:04.219Z,-6.13
2022-10-11T03:40:04.279Z,-6.17
2022-10-11T03:41:04.208Z,-6.18
2022-10-11T03:42:04.266Z,-6.15
2022-10-11T03:43:04.171Z,-6.14
2022-10-11T03:44:04.191Z,-6.18
2022-10-11T03:45:04.156Z,-6.14
2022-10-11T03:46:04.538Z,-6.15
2022-10-11T03:47:04.146Z,-6.14
2022-10-11T03:48:04.218Z,-6.13
2022-10-11T03:49:04.133Z,-6.09
2022-10-11T03:50:04.182Z,-6.07
2022-10-11T03:51:04.141Z,-6.07
2022-10-11T03:52:04.103Z,-6.06
2022-10-11T03:53:04.122Z,-6.05
2022-10-11T03:54:04.139Z,-6.05
2022-10-11T03:55:04.052Z,-6.08
2022-10-11T03:56:08.292Z,-6.09
2022-10-11T03:57:04.060Z,-6.11
2022-10-11T03:58:04.045Z,-6.12
2022-10-11T03:59:04.043Z,-6.15
2022-10-11T04:00:04.077Z,-6.17
2022-10-11T04:01:04.014Z,-6.18
2022-10-11T04:02:04.132Z,-6.21
2022-10-11T04:03:04.002Z,-6.19
2022-10-11T04:04:04.008Z,-6.21
2022-10-11T04:05:03.972Z,-6.24
2022-10-11T04:06:04.520Z,-6.29
2022-10-11T04:07:03.958Z,-6.34
2022-10-11T04:08:06.328Z,-6.38
2022-10-11T04:09:03.951Z,-6.41
2022-10-11T04:10:04.012Z,-6.44
2022-10-11T04:11:03.932Z,-6.45
2022-10-11T04:12:03.972Z,-6.48
2022-10-11T04:13:03.936Z,-6.53
2022-10-11T04:14:03.940Z,-6.58
2022-10-11T04:15:03.894Z,-6.56
2022-10-11T04:16:04.346Z,-6.58
2022-10-11T04:17:03.899Z,-6.70
2022-10-11T04:18:03.912Z,-6.74
2022-10-11T04:19:04.095Z,-6.86
2022-10-11T04:20:03.900Z,-6.91
2022-10-11T04:21:03.862Z,-6.97
2022-10-11T04:22:03.857Z,-7.02
2022-10-11T04:23:03.851Z,-7.01
2022-10-11T04:24:03.867Z,-7.02
2022-10-11T04:25:03.823Z,-7.02
2022-10-11T04:26:04.263Z,-6.94
2022-10-11T04:27:04.170Z,-6.88
2022-10-11T04:28:03.839Z,-6.86
2022-10-11T04:29:03.792Z,-6.81
2022-10-11T04:30:03.830Z,-6.80
2022-10-11T04:31:03.789Z,-6.78
2022-10-11T04:32:03.835Z,-6.83
2022-10-11T04:33:03.773Z,-6.88
2022-10-11T04:34:03.778Z,-6.89
2022-10-11T04:35:04.840Z,-6.88
2022-10-11T04:36:04.150Z,-6.78
2022-10-11T04:37:03.737Z,-6.68
2022-10-11T04:38:03.775Z,-6.63
2022-10-11T04:39:03.720Z,-6.63
2022-10-11T04:40:03.750Z,-6.65
2022-10-11T04:41:03.718Z,-6.65
2022-10-11T04:42:03.728Z,-6.66
2022-10-11T04:43:03.709Z,-6.67
2022-10-11T04:44:03.750Z,-6.70
2022-10-11T04:45:03.704Z,-6.74
2022-10-11T04:46:04.191Z,-6.76
2022-10-11T04:47:03.737Z,-6.83
2022-10-11T04:48:03.745Z,-6.87
2022-10-11T04:49:03.718Z,-6.87
2022-10-11T04:50:03.777Z,-6.90
2022-10-11T04:51:03.713Z,-6.90
2022-10-11T04:52:03.730Z,-6.91
2022-10-11T04:53:03.695Z,-6.95
2022-10-11T04:54:03.727Z,-6.91
2022-10-11T04:55:03.690Z,-6.90
2022-10-11T04:56:04.148Z,-6.79
2022-10-11T04:57:03.707Z,-6.73
2022-10-11T04:58:03.733Z,-6.68
2022-10-11T04:59:03.660Z,-6.70
2022-10-11T05:00:03.692Z,-6.64
2022-10-11T05:01:03.647Z,-6.62
2022-10-11T05:02:03.784Z,-6.64
2022-10-11T05:03:03.638Z,-6.63
2022-10-11T05:04:03.664Z,-6.62
2022-10-11T05:05:03.620Z,-6.63
2022-10-11T05:06:05.962Z,-6.63
2022-10-11T05:07:03.607Z,-6.63
2022-10-11T05:08:03.671Z,-6.64
2022-10-11T05:09:03.594Z,-6.64
2022-10-11T05:10:03.593Z,-6.64
2022-10-11T05:11:03.562Z,-6.65
2022-10-11T05:12:03.573Z,-6.65
2022-10-11T05:13:03.535Z,-6.68
2022-10-11T05:14:03.569Z,-6.71
2022-10-11T05:15:03.521Z,-6.68
2022-10-11T05:16:08.249Z,-6.73
2022-10-11T05:17:03.521Z,-6.72
2022-10-11T05:18:03.525Z,-6.75
2022-10-11T05:19:03.560Z,-6.76
2022-10-11T05:20:03.559Z,-6.74
2022-10-11T05:21:03.473Z,-6.77
2022-10-11T05:22:03.480Z,-6.76
2022-10-11T05:23:03.449Z,-6.77
2022-10-11T05:24:03.479Z,-6.77
2022-10-11T05:25:03.445Z,-6.79
2022-10-11T05:26:03.955Z,-6.82
2022-10-11T05:27:03.732Z,-6.83
2022-10-11T05:28:03.480Z,-6.83
2022-10-11T05:29:03.617Z,-6.90
2022-10-11T05:30:03.486Z,-6.91
2022-10-11T05:31:03.441Z,-6.96
2022-10-11T05:32:03.526Z,-6.96
2022-10-11T05:33:03.433Z,-6.95
2022-10-11T05:34:09.337Z,-6.97
2022-10-11T05:35:09.446Z,-6.96
2022-10-11T05:36:09.777Z,-6.95
2022-10-11T05:37:09.463Z,-6.97
2022-10-11T05:38:09.410Z,-6.94
2022-10-11T05:39:09.435Z,-6.94
2022-10-11T05:40:09.414Z,-6.92
2022-10-11T05:41:09.928Z,-6.92
2022-10-11T05:42:10.102Z,-6.94
2022-10-11T05:43:09.426Z,-6.89
2022-10-11T05:44:09.339Z,-6.89
2022-10-11T05:45:09.354Z,-6.90
2022-10-11T05:46:09.456Z,-6.91
2022-10-11T05:47:09.315Z,-6.89
2022-10-11T05:48:09.291Z,-6.91
2022-10-11T05:49:09.326Z,-6.90
2022-10-11T05:50:09.284Z,-6.94
2022-10-11T05:51:09.298Z,-6.94
2022-10-11T05:52:09.326Z,-6.92
2022-10-11T05:53:09.268Z,-6.97
2022-10-11T05:54:09.206Z,-6.94
2022-10-11T05:55:09.228Z,-6.95
2022-10-11T05:56:09.236Z,-6.92
2022-10-11T05:57:14.100Z,-6.92
2022-10-11T05:58:14.164Z,-6.92
2022-10-11T05:59:14.152Z,-6.95
2022-10-11T06:00:14.156Z,-6.92
2022-10-11T06:01:14.216Z,-6.92
2022-10-11T06:02:20.055Z,-6.92
2022-10-11T06:03:20.104Z,-6.91
2022-10-11T06:04:20.119Z,-6.94
2022-10-11T06:05:20.135Z,-6.92
2022-10-11T06:06:20.098Z,-6.94
2022-10-11T06:07:20.156Z,-6.93
2022-10-11T06:08:20.094Z,-6.93
2022-10-11T06:09:20.077Z,-6.94
2022-10-11T06:10:20.055Z,-6.95
2022-10-11T06:11:20.094Z,-6.95
2022-10-11T06:12:20.020Z,-6.95
2022-10-11T06:13:24.915Z,-6.95
2022-10-11T06:14:25.029Z,-6.93
2022-10-11T06:15:25.088Z,-6.90
2022-10-11T06:16:25.003Z,-6.86
2022-10-11T06:17:24.996Z,-6.83
2022-10-11T06:18:25.003Z,-6.77
2022-10-11T06:19:24.984Z,-6.73
2022-10-11T06:20:24.980Z,-6.70
2022-10-11T06:21:24.992Z,-6.67
2022-10-11T06:22:24.989Z,-6.59
2022-10-11T06:23:24.944Z,-6.57
2022-10-11T06:24:24.964Z,-6.58
2022-10-11T06:25:24.942Z,-6.50
2022-10-11T06:26:24.967Z,-6.45
2022-10-11T06:27:25.003Z,-6.46
2022-10-11T06:28:25.051Z,-6.44
2022-10-11T06:29:24.915Z,-6.42
2022-10-11T06:30:24.926Z,-6.35
2022-10-11T06:31:24.938Z,-6.34
2022-10-11T06:32:24.917Z,-6.30
2022-10-11T06:33:25.055Z,-6.29
2022-10-11T06:34:24.900Z,-6.27
2022-10-11T06:35:24.867Z,-6.26
2022-10-11T06:36:24.897Z,-6.26
2022-10-11T06:37:25.010Z,-6.29
2022-10-11T06:38:24.867Z,-6.29
2022-10-11T06:39:24.972Z,-6.31
2022-10-11T06:40:24.890Z,-6.29
2022-10-11T06:41:24.850Z,-6.27
2022-10-11T06:42:30.725Z,-6.22
2022-10-11T06:43:34.736Z,-6.19
2022-10-11T06:44:34.882Z,-6.13
2022-10-11T06:45:34.810Z,-6.14
2022-10-11T06:46:34.841Z,-6.13
2022-10-11T06:47:34.910Z,-6.08
2022-10-11T06:48:34.842Z,-6.09
2022-10-11T06:49:34.839Z,-6.07
2022-10-11T06:50:54.754Z,-6.05
2022-10-11T06:51:34.788Z,-6.04
2022-10-11T06:52:39.718Z,-6.04
2022-10-11T06:53:39.807Z,-6.05
2022-10-11T06:54:44.625Z,-6.03
2022-10-11T06:55:45.674Z,-6.00
2022-10-11T06:56:45.816Z,-5.99
2022-10-11T06:57:45.843Z,-6.03
2022-10-11T06:58:45.780Z,-6.08
2022-10-11T06:59:45.743Z,-6.06
2022-10-11T07:00:45.949Z,-6.07
2022-10-11T07:01:45.736Z,-6.07
2022-10-11T07:02:45.767Z,-6.05
2022-10-11T07:05:39.624Z,-6.03
2022-10-11T07:06:39.775Z,-6.05
2022-10-11T07:07:39.699Z,-6.04
2022-10-11T07:08:39.743Z,-6.03
2022-10-11T07:09:39.679Z,-6.03
2022-10-11T07:10:39.700Z,-6.01
2022-10-11T07:11:39.676Z,-6.00
2022-10-11T07:12:39.874Z,-6.00
2022-10-11T07:13:39.688Z,-6.04
2022-10-11T07:14:39.722Z,-6.03
2022-10-11T07:15:39.704Z,-6.04
2022-10-11T07:16:39.729Z,-6.05
2022-10-11T07:17:39.704Z,-6.05
2022-10-11T07:18:39.900Z,-6.06
2022-10-11T07:19:39.696Z,-6.08
2022-10-11T07:20:39.728Z,-6.06
2022-10-11T07:21:39.718Z,-6.04
2022-10-11T07:22:39.772Z,-6.04
2022-10-11T07:23:41.076Z,-6.04
2022-10-11T07:24:44.634Z,-6.03
2022-10-11T07:25:44.708Z,-6.03
2022-10-11T07:26:44.678Z,-6.02
2022-10-11T07:27:44.724Z,-6.02
2022-10-11T07:28:44.898Z,-6.04
2022-10-11T07:29:44.727Z,-6.03
2022-10-11T07:30:44.714Z,-6.01
2022-10-11T07:31:50.636Z,-6.00
2022-10-11T07:32:50.742Z,-5.99
2022-10-11T07:33:50.800Z,-5.99
2022-10-11T07:34:50.758Z,-5.97
2022-10-11T07:35:50.734Z,-5.94
2022-10-11T07:36:50.766Z,-5.93
2022-10-11T07:37:50.758Z,-5.92
2022-10-11T07:38:50.797Z,-5.91
2022-10-11T07:39:50.866Z,-5.88
2022-10-11T07:40:50.763Z,-5.85
2022-10-11T07:41:50.791Z,-5.84
2022-10-11T07:42:50.775Z,-5.83
2022-10-11T07:43:50.807Z,-5.79
2022-10-11T07:44:50.774Z,-5.76
2022-10-11T07:45:50.912Z,-5.74
2022-10-11T07:46:50.811Z,-5.69
2022-10-11T07:47:50.754Z,-5.67
2022-10-11T07:48:51.216Z,-5.63
2022-10-11T07:49:56.791Z,-5.60
2022-10-11T07:50:56.839Z,-5.60
2022-10-11T07:51:56.792Z,-5.57
2022-10-11T07:52:56.828Z,-5.57
2022-10-11T07:53:56.800Z,-5.57
2022-10-11T07:54:56.836Z,-5.56
2022-10-11T07:55:56.831Z,-5.56
2022-10-11T07:56:56.971Z,-5.54
2022-10-11T07:57:56.834Z,-5.53
2022-10-11T07:58:56.978Z,-5.55
2022-10-11T07:59:56.863Z,-5.53
2022-10-11T08:00:56.958Z,-5.50
2022-10-11T08:01:56.917Z,-5.50
2022-10-11T08:02:56.936Z,-5.50
2022-10-11T08:03:56.910Z,-5.49
2022-10-11T08:04:56.952Z,-5.48
2022-10-11T08:05:56.888Z,-5.49
2022-10-11T08:06:56.911Z,-5.50
2022-10-11T08:07:56.908Z,-5.52
2022-10-11T08:08:57.083Z,-5.50
2022-10-11T08:09:56.934Z,-5.50
2022-10-11T08:10:56.949Z,-5.49
2022-10-11T08:11:56.967Z,-5.49
2022-10-11T08:13:00.624Z,-5.48
2022-10-11T08:13:56.925Z,-5.48
2022-10-11T08:14:57.046Z,-5.48
2022-10-11T08:15:56.914Z,-5.48
2022-10-11T08:16:56.943Z,-5.48
2022-10-11T08:17:56.918Z,-5.48
2022-10-11T08:19:02.824Z,-5.47
2022-10-11T08:20:07.875Z,-5.49
2022-10-11T08:21:07.958Z,-5.47
2022-10-11T08:22:07.963Z,-5.47
2022-10-11T08:23:07.953Z,-5.48
2022-10-11T08:24:07.950Z,-5.47
2022-10-11T08:25:07.991Z,-5.47
2022-10-11T08:26:08.311Z,-5.47
2022-10-11T08:27:07.970Z,-5.46
2022-10-11T08:28:08.149Z,-5.46
2022-10-11T08:29:07.938Z,-5.46
2022-10-11T08:30:08.050Z,-5.45
2022-10-11T08:31:07.979Z,-5.45
2022-10-11T08:32:07.922Z,-5.45
2022-10-11T08:33:08.699Z,-5.43
2022-10-11T08:34:07.924Z,-5.43
2022-10-11T08:35:07.960Z,-5.43
2022-10-11T08:36:08.563Z,-5.42
2022-10-11T08:37:08.077Z,-5.41
2022-10-11T08:38:08.002Z,-5.38
2022-10-11T08:39:08.010Z,-5.40
2022-10-11T08:40:07.980Z,-5.38
2022-10-11T08:41:07.997Z,-5.37
2022-10-11T08:42:07.977Z,-5.35
2022-10-11T08:43:08.017Z,-5.35
2022-10-11T08:44:07.965Z,-5.34
2022-10-11T08:45:11.760Z,-5.33
2022-10-11T08:46:08.423Z,-5.33
2022-10-11T08:47:07.984Z,-5.32
2022-10-11T08:48:07.973Z,-5.30
2022-10-11T08:49:08.093Z,-5.30
2022-10-11T08:50:07.971Z,-5.30
2022-10-11T08:51:07.998Z,-5.29
2022-10-11T08:52:08.021Z,-5.28
2022-10-11T08:53:07.999Z,-5.27
2022-10-11T08:54:08.216Z,-5.27
2022-10-11T08:55:08.044Z,-5.24
2022-10-11T08:56:08.478Z,-5.24
2022-10-11T08:57:08.033Z,-5.20
2022-10-11T08:58:08.003Z,-5.19
2022-10-11T08:59:08.042Z,-5.18
2022-10-11T09:00:08.015Z,-5.18
2022-10-11T09:01:08.153Z,-5.17
2022-10-11T09:02:08.072Z,-5.17
2022-10-11T09:03:09.225Z,-5.14
2022-10-11T09:04:08.044Z,-5.11
2022-10-11T09:05:08.093Z,-5.09
2022-10-11T09:06:08.913Z,-5.09
2022-10-11T09:07:14.130Z,-5.03
2022-10-11T09:08:14.098Z,-5.01
2022-10-11T09:10:19.013Z,-4.96
2022-10-11T09:11:19.094Z,-4.90
2022-10-11T09:12:19.203Z,-4.91
2022-10-11T09:13:19.105Z,-4.87
2022-10-11T09:14:19.099Z,-4.85
2022-10-11T09:15:19.108Z,-4.81
2022-10-11T09:16:19.121Z,-4.79
2022-10-11T09:17:19.137Z,-4.74
2022-10-11T09:18:19.261Z,-4.72
2022-10-11T09:19:24.067Z,-4.69
2022-10-11T09:20:24.155Z,-4.66
2022-10-11T09:21:24.139Z,-4.61
2022-10-11T09:22:30.878Z,-4.57
2022-10-11T09:23:30.226Z,-4.55
2022-10-11T09:24:30.187Z,-4.53
2022-10-11T09:25:30.246Z,-4.48
2022-10-11T09:26:30.695Z,-4.44
2022-10-11T09:27:50.331Z,-4.41
2022-10-11T09:28:30.304Z,-4.38
2022-10-11T09:29:30.258Z,-4.39
2022-10-11T09:30:30.226Z,-4.37
2022-10-11T09:31:30.234Z,-4.35
2022-10-11T09:32:30.269Z,-4.32
2022-10-11T09:33:30.271Z,-4.30
2022-10-11T09:34:30.249Z,-4.27
2022-10-11T09:35:30.436Z,-4.25
2022-10-11T09:36:30.283Z,-4.21
2022-10-11T09:37:30.302Z,-4.22
2022-10-11T09:38:30.301Z,-4.21
2022-10-11T09:39:30.336Z,-4.15
2022-10-11T09:40:30.357Z,-4.15
2022-10-11T09:41:30.377Z,-4.11
2022-10-11T09:42:30.508Z,-4.10
2022-10-11T09:43:30.411Z,-4.09
2022-10-11T09:44:30.388Z,-4.06
2022-10-11T09:45:30.423Z,-4.06
2022-10-11T09:46:30.553Z,-4.02
2022-10-11T09:47:30.460Z,-4.01
2022-10-11T09:48:30.452Z,-3.98
2022-10-11T09:49:30.490Z,-3.96
2022-10-11T09:50:30.516Z,-3.93
2022-10-11T09:51:30.513Z,-3.93
2022-10-11T09:52:30.606Z,-3.93
2022-10-11T09:53:30.667Z,-3.92
2022-10-11T09:54:30.556Z,-3.92
2022-10-11T09:55:30.589Z,-3.90
2022-10-11T09:56:30.631Z,-3.87
2022-10-11T09:57:30.671Z,-3.86
2022-10-11T09:58:30.597Z,-3.86
2022-10-11T09:59:30.640Z,-3.84
2022-10-11T10:00:30.671Z,-3.84
2022-10-11T10:01:30.714Z,-3.80
2022-10-11T10:02:30.673Z,-3.79
2022-10-11T10:03:30.909Z,-3.75
2022-10-11T10:04:30.734Z,-3.77
2022-10-11T10:05:30.739Z,-3.76
2022-10-11T10:06:30.779Z,-3.74
2022-10-11T10:07:30.809Z,-3.72
2022-10-11T10:08:30.813Z,-3.74
2022-10-11T10:09:30.849Z,-3.69
2022-10-11T10:10:30.828Z,-3.67
2022-10-11T10:11:30.942Z,-3.64
2022-10-11T10:12:30.967Z,-3.63
2022-10-11T10:13:31.057Z,-3.62
2022-10-11T10:14:30.930Z,-3.60
2022-10-11T10:15:30.989Z,-3.56
2022-10-11T10:16:30.940Z,-3.56
2022-10-11T10:17:30.983Z,-3.53
2022-10-11T10:18:30.999Z,-3.53
2022-10-11T10:19:31.066Z,-3.52
2022-10-11T10:20:31.014Z,-3.51
2022-10-11T10:21:31.053Z,-3.51
2022-10-11T10:22:31.054Z,-3.49
2022-10-11T10:23:31.225Z,-3.46
2022-10-11T10:24:31.213Z,-3.45
2022-10-11T10:25:31.137Z,-3.45
2022-10-11T10:26:31.131Z,-3.42
2022-10-11T10:27:31.183Z,-3.42
2022-10-11T10:28:31.245Z,-3.39
2022-10-11T10:29:31.208Z,-3.40
2022-10-11T10:30:35.363Z,-3.40
2022-10-11T10:31:32.823Z,-3.38
2022-10-11T10:32:31.253Z,-3.37
2022-10-11T10:33:31.440Z,-3.35
2022-10-11T10:34:31.310Z,-3.33
2022-10-11T10:35:31.359Z,-3.33
2022-10-11T10:36:31.495Z,-3.31
2022-10-11T10:37:31.415Z,-3.27
2022-10-11T10:38:31.430Z,-3.25
2022-10-11T10:39:31.469Z,-3.24
2022-10-11T10:40:31.479Z,-3.22
2022-10-11T10:41:31.568Z,-3.21
2022-10-11T10:42:31.543Z,-3.21
2022-10-11T10:43:31.617Z,-3.22
2022-10-11T10:44:31.618Z,-3.22
2022-10-11T10:45:31.666Z,-3.17
2022-10-11T10:46:31.774Z,-3.11
2022-10-11T10:47:31.724Z,-3.08
2022-10-11T10:48:48.171Z,-3.05
2022-10-11T10:49:54.106Z,-3.03
2022-10-11T10:50:31.842Z,-3.02
2022-10-11T10:51:31.862Z,-3.01
2022-10-11T10:52:31.829Z,-3.01
2022-10-11T10:53:31.916Z,-3.00
2022-10-11T10:54:31.869Z,-2.96
2022-10-11T10:55:31.930Z,-2.96
2022-10-11T10:56:32.005Z,-2.95
2022-10-11T10:57:31.955Z,-2.94
2022-10-11T10:58:31.956Z,-2.95
2022-10-11T10:59:32.017Z,-2.93
2022-10-11T11:00:32.038Z,-2.93
2022-10-11T11:01:37.060Z,-2.91
2022-10-11T11:02:41.141Z,-2.90
2022-10-11T11:03:37.235Z,-2.87
2022-10-11T11:04:37.122Z,-2.84
2022-10-11T11:05:37.115Z,-2.84
2022-10-11T11:06:37.167Z,-2.81
2022-10-11T11:07:37.179Z,-2.79
2022-10-11T11:08:37.196Z,-2.76
2022-10-11T11:09:37.182Z,-2.76
2022-10-11T11:10:43.099Z,-2.75
2022-10-11T11:11:43.301Z,-2.74
2022-10-11T11:12:43.258Z,-2.73
2022-10-11T11:13:43.399Z,-2.69
2022-10-11T11:14:43.310Z,-2.71
2022-10-11T11:15:43.328Z,-2.69
2022-10-11T11:16:43.476Z,-2.68
2022-10-11T11:17:43.394Z,-2.66
2022-10-11T11:18:43.400Z,-2.64
2022-10-11T11:19:43.456Z,-2.63
2022-10-11T11:20:43.429Z,-2.60
2022-10-11T11:21:44.228Z,-2.56
2022-10-11T11:22:49.389Z,-2.56
2022-10-11T11:23:49.902Z,-2.51
2022-10-11T11:24:49.542Z,-2.49
2022-10-11T11:25:49.597Z,-2.47
2022-10-11T11:26:49.718Z,-2.47
2022-10-11T11:27:49.637Z,-2.45
2022-10-11T11:30:43.644Z,-2.41
2022-10-11T11:31:43.745Z,-2.30
2022-10-11T11:32:45.817Z,-2.29
2022-10-11T11:33:48.487Z,-2.26
2022-10-11T11:34:43.904Z,-2.22
2022-10-11T11:35:43.855Z,-2.17
2022-10-11T11:36:43.869Z,-2.15
2022-10-11T11:37:43.931Z,-2.12
2022-10-11T11:38:43.907Z,-2.07
2022-10-11T11:39:43.965Z,-2.03
2022-10-11T11:40:43.971Z,-1.98
2022-10-11T11:41:43.992Z,-1.94
2022-10-11T11:42:44.159Z,-1.90
2022-10-11T11:43:44.066Z,-1.87
2022-10-11T11:44:44.160Z,-1.84
2022-10-11T11:45:44.097Z,-1.83
2022-10-11T11:46:44.110Z,-1.84
2022-10-11T11:47:44.301Z,-1.95
2022-10-11T11:48:44.155Z,-1.99
2022-10-11T11:50:44.213Z,-1.97
2022-10-11T11:51:44.286Z,-1.94
2022-10-11T11:52:44.266Z,-1.97
2022-10-11T11:53:44.427Z,-1.99
2022-10-11T11:54:44.349Z,-1.99
2022-10-11T11:55:44.370Z,-2.02
2022-10-11T11:56:44.370Z,-2.02
2022-10-11T11:57:44.456Z,-2.04
2022-10-11T11:58:44.456Z,-2.06
2022-10-11T11:59:44.501Z,-2.07
2022-10-11T12:00:44.503Z,-2.07
2022-10-11T12:01:49.500Z,-2.09
2022-10-11T12:02:49.583Z,-2.08
2022-10-11T12:03:49.625Z,-2.08
2022-10-11T12:04:49.771Z,-2.10
2022-10-11T12:05:49.650Z,-2.09
2022-10-11T12:07:15.009Z,-2.10
2022-10-11T12:07:54.729Z,-2.12
2022-10-11T12:08:54.757Z,-2.16
2022-10-11T12:09:54.793Z,-2.16
2022-10-11T12:10:54.799Z,-2.18
2022-10-11T12:11:54.826Z,-2.19
2022-10-11T12:12:54.851Z,-2.21
2022-10-11T12:13:55.061Z,-2.22
2022-10-11T12:14:55.415Z,-2.22
2022-10-11T12:15:54.997Z,-2.24
2022-10-11T12:16:55.029Z,-2.26
2022-10-11T12:17:55.018Z,-2.27
2022-10-11T12:18:55.028Z,-2.26
2022-10-11T12:19:55.089Z,-2.27
2022-10-11T12:20:55.086Z,-2.27
2022-10-11T12:21:55.137Z,-2.26
2022-10-11T12:22:55.169Z,-2.22
2022-10-11T12:23:55.193Z,-2.21
2022-10-11T12:24:55.232Z,-2.22
2022-10-11T12:25:55.360Z,-2.20
2022-10-11T12:26:55.270Z,-2.17
2022-10-11T12:27:55.325Z,-2.12
2022-10-11T12:28:55.407Z,-2.05
2022-10-11T12:29:55.511Z,-2.00
2022-10-11T12:30:55.418Z,-1.94
2022-10-11T12:31:55.505Z,-1.88
2022-10-11T12:32:55.477Z,-1.78
2022-10-11T12:33:55.527Z,-1.71
2022-10-11T12:34:55.564Z,-1.63
2022-10-11T12:35:55.623Z,-1.58
2022-10-11T12:36:55.602Z,-1.55
2022-10-11T12:37:55.667Z,-1.48
2022-10-11T12:38:55.708Z,-1.40
2022-10-11T12:39:55.753Z,-1.35
2022-10-11T12:40:55.746Z,-1.29
2022-10-11T12:41:55.810Z,-1.24
2022-10-11T12:43:01.761Z,-1.17
2022-10-11T12:44:01.903Z,-1.11
2022-10-11T12:45:01.937Z,-1.04
2022-10-11T12:46:07.399Z,-1.08
2022-10-11T12:47:12.888Z,-1.06
2022-10-11T12:48:13.052Z,-1.02
2022-10-11T12:49:13.069Z,-1.00
2022-10-11T12:50:13.143Z,-0.97
2022-10-11T12:51:13.130Z,-0.94
2022-10-11T12:52:13.199Z,-0.91
2022-10-11T12:53:13.214Z,-0.90
2022-10-11T12:54:26.658Z,-0.88
2022-10-11T12:55:13.283Z,-0.80
2022-10-11T12:56:13.439Z,-0.77
2022-10-11T12:57:13.324Z,-0.73
2022-10-11T12:58:13.386Z,-0.66
2022-10-11T12:59:13.397Z,-0.64
2022-10-11T13:00:13.496Z,-0.60
2022-10-11T13:01:13.578Z,-0.56
2022-10-11T13:02:13.541Z,-0.51
2022-10-11T13:03:13.562Z,-0.47